sensor_id;sensor_type;location;lat;lon;timestamp;P1;durP1;ratioP1;P2;durP2;ratioP2
6947;SDS011;3513;47.664;9.162;2023-04-16T00:00:05;16.30;;;5.63;;
6947;SDS011;3513;47.664;9.162;2023-04-16T00:02:32;12.57;;;6.47;;
6947;SDS011;3513;47.664;9.162;2023-04-16T00:04:57;7.70;;;5.50;;
6947;SDS011;3513;47.664;9.162;2023-04-16T00:07:23;8.40;;;5.27;;
6947;SDS011;3513;47.664;9.162;2023-04-16T00:09:49;9.00;;;5.20;;
6947;SDS011;3513;47.664;9.162;2023-04-16T00:12:15;10.07;;;6.03;;
6947;SDS011;3513;47.664;9.162;2023-04-16T00:14:40;9.17;;;4.50;;
6947;SDS011;3513;47.664;9.162;2023-04-16T00:17:07;7.80;;;4.70;;
6947;SDS011;3513;47.664;9.162;2023-04-16T00:19:33;13.80;;;6.70;;
6947;SDS011;3513;47.664;9.162;2023-04-16T00:21:59;7.93;;;5.77;;
6947;SDS011;3513;47.664;9.162;2023-04-16T00:24:25;7.73;;;5.93;;
6947;SDS011;3513;47.664;9.162;2023-04-16T00:26:50;7.37;;;5.57;;
6947;SDS011;3513;47.664;9.162;2023-04-16T00:29:16;16.13;;;6.30;;
6947;SDS011;3513;47.664;9.162;2023-04-16T00:31:41;13.93;;;6.97;;
6947;SDS011;3513;47.664;9.162;2023-04-16T00:34:07;8.97;;;6.97;;
6947;SDS011;3513;47.664;9.162;2023-04-16T00:36:32;11.40;;;6.23;;
6947;SDS011;3513;47.664;9.162;2023-04-16T00:38:58;7.50;;;6.00;;
6947;SDS011;3513;47.664;9.162;2023-04-16T00:41:24;8.97;;;4.90;;
6947;SDS011;3513;47.664;9.162;2023-04-16T00:43:50;5.63;;;4.23;;
6947;SDS011;3513;47.664;9.162;2023-04-16T00:46:15;8.63;;;3.90;;
6947;SDS011;3513;47.664;9.162;2023-04-16T00:48:43;3.30;;;3.00;;
6947;SDS011;3513;47.664;9.162;2023-04-16T00:51:09;2.87;;;2.57;;
6947;SDS011;3513;47.664;9.162;2023-04-16T00:53:35;2.30;;;2.10;;
6947;SDS011;3513;47.664;9.162;2023-04-16T00:56:02;2.37;;;2.10;;
6947;SDS011;3513;47.664;9.162;2023-04-16T00:58:30;2.50;;;2.10;;
6947;SDS011;3513;47.664;9.162;2023-04-16T01:00:56;1.23;;;1.13;;
6947;SDS011;3513;47.664;9.162;2023-04-16T01:03:22;1.57;;;1.47;;
6947;SDS011;3513;47.664;9.162;2023-04-16T01:05:50;1.50;;;1.40;;
6947;SDS011;3513;47.664;9.162;2023-04-16T01:08:19;1.87;;;1.70;;
6947;SDS011;3513;47.664;9.162;2023-04-16T01:10:46;1.53;;;1.43;;
6947;SDS011;3513;47.664;9.162;2023-04-16T01:13:11;1.43;;;1.33;;
6947;SDS011;3513;47.664;9.162;2023-04-16T01:15:37;2.30;;;2.10;;
6947;SDS011;3513;47.664;9.162;2023-04-16T01:18:12;2.30;;;2.20;;
6947;SDS011;3513;47.664;9.162;2023-04-16T01:20:41;3.33;;;1.97;;
6947;SDS011;3513;47.664;9.162;2023-04-16T01:23:07;2.77;;;2.43;;
6947;SDS011;3513;47.664;9.162;2023-04-16T01:25:33;2.50;;;2.30;;
6947;SDS011;3513;47.664;9.162;2023-04-16T01:27:58;2.87;;;2.67;;
6947;SDS011;3513;47.664;9.162;2023-04-16T01:30:24;2.30;;;2.10;;
6947;SDS011;3513;47.664;9.162;2023-04-16T01:32:50;3.53;;;2.20;;
6947;SDS011;3513;47.664;9.162;2023-04-16T01:35:16;2.90;;;2.53;;
6947;SDS011;3513;47.664;9.162;2023-04-16T01:37:42;2.73;;;2.53;;
6947;SDS011;3513;47.664;9.162;2023-04-16T01:40:08;2.53;;;2.33;;
6947;SDS011;3513;47.664;9.162;2023-04-16T01:42:34;2.90;;;2.70;;
6947;SDS011;3513;47.664;9.162;2023-04-16T01:44:59;4.33;;;3.30;;
6947;SDS011;3513;47.664;9.162;2023-04-16T01:47:25;4.50;;;3.80;;
6947;SDS011;3513;47.664;9.162;2023-04-16T01:49:51;5.83;;;3.27;;
6947;SDS011;3513;47.664;9.162;2023-04-16T01:52:17;4.23;;;3.50;;
6947;SDS011;3513;47.664;9.162;2023-04-16T01:54:42;3.30;;;3.00;;
6947;SDS011;3513;47.664;9.162;2023-04-16T01:57:08;2.83;;;2.67;;
6947;SDS011;3513;47.664;9.162;2023-04-16T01:59:34;3.30;;;3.10;;
6947;SDS011;3513;47.664;9.162;2023-04-16T02:02:01;3.90;;;2.77;;
6947;SDS011;3513;47.664;9.162;2023-04-16T02:04:32;2.37;;;2.23;;
6947;SDS011;3513;47.664;9.162;2023-04-16T02:06:57;8.07;;;2.60;;
6947;SDS011;3513;47.664;9.162;2023-04-16T02:09:23;2.63;;;2.43;;
6947;SDS011;3513;47.664;9.162;2023-04-16T02:11:49;5.03;;;2.57;;
6947;SDS011;3513;47.664;9.162;2023-04-16T02:14:14;2.70;;;2.50;;
6947;SDS011;3513;47.664;9.162;2023-04-16T02:16:40;4.93;;;2.27;;
6947;SDS011;3513;47.664;9.162;2023-04-16T02:19:05;2.57;;;2.37;;
6947;SDS011;3513;47.664;9.162;2023-04-16T02:21:31;3.50;;;2.73;;
6947;SDS011;3513;47.664;9.162;2023-04-16T02:23:56;4.33;;;3.13;;
6947;SDS011;3513;47.664;9.162;2023-04-16T02:26:22;3.87;;;3.37;;
6947;SDS011;3513;47.664;9.162;2023-04-16T02:28:48;4.23;;;3.77;;
6947;SDS011;3513;47.664;9.162;2023-04-16T02:31:13;5.67;;;4.40;;
6947;SDS011;3513;47.664;9.162;2023-04-16T02:33:41;7.17;;;5.20;;
6947;SDS011;3513;47.664;9.162;2023-04-16T02:36:07;7.47;;;5.40;;
6947;SDS011;3513;47.664;9.162;2023-04-16T02:38:35;7.43;;;5.40;;
6947;SDS011;3513;47.664;9.162;2023-04-16T02:41:01;7.17;;;5.80;;
6947;SDS011;3513;47.664;9.162;2023-04-16T02:43:27;6.03;;;5.43;;
6947;SDS011;3513;47.664;9.162;2023-04-16T02:45:52;7.63;;;6.13;;
6947;SDS011;3513;47.664;9.162;2023-04-16T02:48:18;6.63;;;5.50;;
6947;SDS011;3513;47.664;9.162;2023-04-16T02:50:43;6.23;;;5.40;;
6947;SDS011;3513;47.664;9.162;2023-04-16T02:53:09;6.33;;;5.50;;
6947;SDS011;3513;47.664;9.162;2023-04-16T02:55:35;6.23;;;5.37;;
6947;SDS011;3513;47.664;9.162;2023-04-16T02:58:01;6.30;;;4.97;;
6947;SDS011;3513;47.664;9.162;2023-04-16T03:00:26;9.53;;;5.33;;
6947;SDS011;3513;47.664;9.162;2023-04-16T03:02:52;5.93;;;5.10;;
6947;SDS011;3513;47.664;9.162;2023-04-16T03:05:17;6.67;;;5.60;;
6947;SDS011;3513;47.664;9.162;2023-04-16T03:07:43;5.93;;;4.53;;
6947;SDS011;3513;47.664;9.162;2023-04-16T03:10:09;5.80;;;5.00;;
6947;SDS011;3513;47.664;9.162;2023-04-16T03:12:35;7.83;;;6.07;;
6947;SDS011;3513;47.664;9.162;2023-04-16T03:15:01;9.27;;;5.90;;
6947;SDS011;3513;47.664;9.162;2023-04-16T03:17:27;5.57;;;4.73;;
6947;SDS011;3513;47.664;9.162;2023-04-16T03:19:52;5.67;;;5.17;;
6947;SDS011;3513;47.664;9.162;2023-04-16T03:22:18;7.90;;;6.20;;
6947;SDS011;3513;47.664;9.162;2023-04-16T03:24:44;8.57;;;5.93;;
6947;SDS011;3513;47.664;9.162;2023-04-16T03:27:09;7.17;;;6.20;;
6947;SDS011;3513;47.664;9.162;2023-04-16T03:29:35;6.93;;;6.23;;
6947;SDS011;3513;47.664;9.162;2023-04-16T03:32:02;8.20;;;6.70;;
6947;SDS011;3513;47.664;9.162;2023-04-16T03:34:28;7.33;;;6.60;;
6947;SDS011;3513;47.664;9.162;2023-04-16T03:36:53;8.70;;;7.03;;
6947;SDS011;3513;47.664;9.162;2023-04-16T03:39:19;6.73;;;6.13;;
6947;SDS011;3513;47.664;9.162;2023-04-16T03:41:45;7.93;;;6.50;;
6947;SDS011;3513;47.664;9.162;2023-04-16T03:44:10;10.63;;;6.97;;
6947;SDS011;3513;47.664;9.162;2023-04-16T03:46:36;7.13;;;6.43;;
6947;SDS011;3513;47.664;9.162;2023-04-16T03:49:01;7.40;;;6.10;;
6947;SDS011;3513;47.664;9.162;2023-04-16T03:51:27;8.10;;;6.77;;
6947;SDS011;3513;47.664;9.162;2023-04-16T03:53:53;8.80;;;5.33;;
6947;SDS011;3513;47.664;9.162;2023-04-16T03:56:18;10.10;;;5.63;;
6947;SDS011;3513;47.664;9.162;2023-04-16T03:58:44;11.23;;;5.60;;
6947;SDS011;3513;47.664;9.162;2023-04-16T04:01:10;5.23;;;4.73;;
6947;SDS011;3513;47.664;9.162;2023-04-16T04:03:35;5.97;;;5.03;;
6947;SDS011;3513;47.664;9.162;2023-04-16T04:06:05;4.93;;;4.43;;
6947;SDS011;3513;47.664;9.162;2023-04-16T04:08:32;4.90;;;4.23;;
6947;SDS011;3513;47.664;9.162;2023-04-16T04:10:57;4.40;;;3.90;;
6947;SDS011;3513;47.664;9.162;2023-04-16T04:13:23;6.03;;;5.43;;
6947;SDS011;3513;47.664;9.162;2023-04-16T04:15:48;6.70;;;5.67;;
6947;SDS011;3513;47.664;9.162;2023-04-16T04:18:14;8.03;;;6.23;;
6947;SDS011;3513;47.664;9.162;2023-04-16T04:20:40;7.80;;;6.40;;
6947;SDS011;3513;47.664;9.162;2023-04-16T04:23:05;5.63;;;5.10;;
6947;SDS011;3513;47.664;9.162;2023-04-16T04:25:31;7.00;;;5.50;;
6947;SDS011;3513;47.664;9.162;2023-04-16T04:27:57;6.90;;;5.70;;
6947;SDS011;3513;47.664;9.162;2023-04-16T04:30:22;8.13;;;5.73;;
6947;SDS011;3513;47.664;9.162;2023-04-16T04:32:48;8.63;;;6.83;;
6947;SDS011;3513;47.664;9.162;2023-04-16T04:35:13;7.70;;;6.40;;
6947;SDS011;3513;47.664;9.162;2023-04-16T04:37:40;10.40;;;6.50;;
6947;SDS011;3513;47.664;9.162;2023-04-16T04:40:05;8.90;;;7.47;;
6947;SDS011;3513;47.664;9.162;2023-04-16T04:42:31;8.00;;;6.83;;
6947;SDS011;3513;47.664;9.162;2023-04-16T04:44:57;7.37;;;6.43;;
6947;SDS011;3513;47.664;9.162;2023-04-16T04:47:23;9.40;;;7.60;;
6947;SDS011;3513;47.664;9.162;2023-04-16T04:49:48;7.80;;;6.63;;
6947;SDS011;3513;47.664;9.162;2023-04-16T04:52:14;13.63;;;9.17;;
6947;SDS011;3513;47.664;9.162;2023-04-16T04:54:40;15.10;;;9.03;;
6947;SDS011;3513;47.664;9.162;2023-04-16T04:57:05;12.03;;;9.30;;
6947;SDS011;3513;47.664;9.162;2023-04-16T04:59:31;11.33;;;8.50;;
6947;SDS011;3513;47.664;9.162;2023-04-16T05:01:57;10.27;;;8.23;;
6947;SDS011;3513;47.664;9.162;2023-04-16T05:04:23;12.40;;;8.93;;
6947;SDS011;3513;47.664;9.162;2023-04-16T05:06:49;13.43;;;9.17;;
6947;SDS011;3513;47.664;9.162;2023-04-16T05:09:15;13.37;;;8.67;;
6947;SDS011;3513;47.664;9.162;2023-04-16T05:11:41;11.43;;;8.40;;
6947;SDS011;3513;47.664;9.162;2023-04-16T05:14:07;11.60;;;7.57;;
6947;SDS011;3513;47.664;9.162;2023-04-16T05:16:36;11.90;;;9.00;;
6947;SDS011;3513;47.664;9.162;2023-04-16T05:19:01;13.60;;;9.87;;
6947;SDS011;3513;47.664;9.162;2023-04-16T05:21:27;10.50;;;8.50;;
6947;SDS011;3513;47.664;9.162;2023-04-16T05:23:53;13.00;;;8.20;;
6947;SDS011;3513;47.664;9.162;2023-04-16T05:26:19;10.00;;;7.90;;
6947;SDS011;3513;47.664;9.162;2023-04-16T05:28:44;10.00;;;8.30;;
6947;SDS011;3513;47.664;9.162;2023-04-16T05:31:10;11.93;;;6.90;;
6947;SDS011;3513;47.664;9.162;2023-04-16T05:33:36;7.67;;;6.87;;
6947;SDS011;3513;47.664;9.162;2023-04-16T05:36:01;12.33;;;7.60;;
6947;SDS011;3513;47.664;9.162;2023-04-16T05:38:27;8.77;;;7.20;;
6947;SDS011;3513;47.664;9.162;2023-04-16T05:40:54;10.50;;;7.97;;
6947;SDS011;3513;47.664;9.162;2023-04-16T05:43:20;8.27;;;6.77;;
6947;SDS011;3513;47.664;9.162;2023-04-16T05:45:45;7.73;;;6.67;;
6947;SDS011;3513;47.664;9.162;2023-04-16T05:48:18;9.23;;;6.80;;
6947;SDS011;3513;47.664;9.162;2023-04-16T05:50:53;8.57;;;7.47;;
6947;SDS011;3513;47.664;9.162;2023-04-16T05:53:18;10.13;;;7.10;;
6947;SDS011;3513;47.664;9.162;2023-04-16T05:55:44;8.17;;;7.30;;
6947;SDS011;3513;47.664;9.162;2023-04-16T05:58:10;11.00;;;8.20;;
6947;SDS011;3513;47.664;9.162;2023-04-16T06:00:36;11.30;;;7.97;;
6947;SDS011;3513;47.664;9.162;2023-04-16T06:03:01;13.03;;;7.77;;
6947;SDS011;3513;47.664;9.162;2023-04-16T06:05:27;9.07;;;7.60;;
6947;SDS011;3513;47.664;9.162;2023-04-16T06:07:53;10.80;;;9.37;;
6947;SDS011;3513;47.664;9.162;2023-04-16T06:10:20;9.57;;;8.17;;
6947;SDS011;3513;47.664;9.162;2023-04-16T06:12:45;9.50;;;7.40;;
6947;SDS011;3513;47.664;9.162;2023-04-16T06:15:11;17.27;;;11.73;;
6947;SDS011;3513;47.664;9.162;2023-04-16T06:17:36;14.03;;;10.23;;
6947;SDS011;3513;47.664;9.162;2023-04-16T06:20:02;9.90;;;7.40;;
6947;SDS011;3513;47.664;9.162;2023-04-16T06:22:28;9.57;;;8.10;;
6947;SDS011;3513;47.664;9.162;2023-04-16T06:24:54;8.13;;;7.00;;
6947;SDS011;3513;47.664;9.162;2023-04-16T06:27:20;8.50;;;7.00;;
6947;SDS011;3513;47.664;9.162;2023-04-16T06:29:46;9.93;;;8.10;;
6947;SDS011;3513;47.664;9.162;2023-04-16T06:32:11;6.90;;;5.43;;
6947;SDS011;3513;47.664;9.162;2023-04-16T06:34:37;6.53;;;5.83;;
6947;SDS011;3513;47.664;9.162;2023-04-16T06:37:03;6.23;;;5.33;;
6947;SDS011;3513;47.664;9.162;2023-04-16T06:39:29;6.73;;;5.53;;
6947;SDS011;3513;47.664;9.162;2023-04-16T06:41:55;7.53;;;5.77;;
6947;SDS011;3513;47.664;9.162;2023-04-16T06:44:21;5.70;;;5.17;;
6947;SDS011;3513;47.664;9.162;2023-04-16T06:46:46;6.53;;;5.17;;
6947;SDS011;3513;47.664;9.162;2023-04-16T06:49:12;7.17;;;4.67;;
6947;SDS011;3513;47.664;9.162;2023-04-16T06:51:38;6.77;;;5.00;;
6947;SDS011;3513;47.664;9.162;2023-04-16T06:54:03;14.93;;;4.50;;
6947;SDS011;3513;47.664;9.162;2023-04-16T06:56:30;6.00;;;4.50;;
6947;SDS011;3513;47.664;9.162;2023-04-16T06:58:56;6.50;;;4.63;;
6947;SDS011;3513;47.664;9.162;2023-04-16T07:01:23;6.53;;;4.77;;
6947;SDS011;3513;47.664;9.162;2023-04-16T07:03:48;5.17;;;4.67;;
6947;SDS011;3513;47.664;9.162;2023-04-16T07:06:14;6.07;;;4.40;;
6947;SDS011;3513;47.664;9.162;2023-04-16T07:08:40;5.43;;;4.67;;
6947;SDS011;3513;47.664;9.162;2023-04-16T07:11:05;4.70;;;4.30;;
6947;SDS011;3513;47.664;9.162;2023-04-16T07:13:31;7.80;;;5.00;;
6947;SDS011;3513;47.664;9.162;2023-04-16T07:15:57;7.47;;;4.30;;
6947;SDS011;3513;47.664;9.162;2023-04-16T07:18:22;3.90;;;3.50;;
6947;SDS011;3513;47.664;9.162;2023-04-16T07:20:48;5.73;;;3.70;;
6947;SDS011;3513;47.664;9.162;2023-04-16T07:23:13;3.60;;;3.30;;
6947;SDS011;3513;47.664;9.162;2023-04-16T07:25:39;3.33;;;3.00;;
6947;SDS011;3513;47.664;9.162;2023-04-16T07:28:05;4.43;;;3.40;;
6947;SDS011;3513;47.664;9.162;2023-04-16T07:30:31;2.90;;;2.70;;
6947;SDS011;3513;47.664;9.162;2023-04-16T07:33:01;3.40;;;3.10;;
6947;SDS011;3513;47.664;9.162;2023-04-16T07:35:27;3.27;;;2.97;;
6947;SDS011;3513;47.664;9.162;2023-04-16T07:37:54;3.53;;;3.03;;
6947;SDS011;3513;47.664;9.162;2023-04-16T07:40:20;3.53;;;2.80;;
6947;SDS011;3513;47.664;9.162;2023-04-16T07:42:45;4.00;;;2.70;;
6947;SDS011;3513;47.664;9.162;2023-04-16T07:45:11;3.00;;;2.80;;
6947;SDS011;3513;47.664;9.162;2023-04-16T07:47:37;3.47;;;2.70;;
6947;SDS011;3513;47.664;9.162;2023-04-16T07:50:02;3.57;;;3.27;;
6947;SDS011;3513;47.664;9.162;2023-04-16T07:52:28;2.73;;;2.53;;
6947;SDS011;3513;47.664;9.162;2023-04-16T07:54:54;4.10;;;3.70;;
6947;SDS011;3513;47.664;9.162;2023-04-16T07:57:20;4.30;;;3.60;;
6947;SDS011;3513;47.664;9.162;2023-04-16T07:59:45;4.63;;;3.77;;
6947;SDS011;3513;47.664;9.162;2023-04-16T08:02:12;4.33;;;3.37;;
6947;SDS011;3513;47.664;9.162;2023-04-16T08:04:40;3.17;;;2.90;;
6947;SDS011;3513;47.664;9.162;2023-04-16T08:07:06;5.80;;;3.93;;
6947;SDS011;3513;47.664;9.162;2023-04-16T08:09:32;6.30;;;5.20;;
6947;SDS011;3513;47.664;9.162;2023-04-16T08:12:00;5.53;;;4.73;;
6947;SDS011;3513;47.664;9.162;2023-04-16T08:14:26;9.63;;;6.23;;
6947;SDS011;3513;47.664;9.162;2023-04-16T08:16:52;4.60;;;3.00;;
6947;SDS011;3513;47.664;9.162;2023-04-16T08:19:18;2.80;;;2.60;;
6947;SDS011;3513;47.664;9.162;2023-04-16T08:21:44;3.07;;;2.40;;
6947;SDS011;3513;47.664;9.162;2023-04-16T08:24:09;3.67;;;2.77;;
6947;SDS011;3513;47.664;9.162;2023-04-16T08:26:35;3.60;;;3.20;;
6947;SDS011;3513;47.664;9.162;2023-04-16T08:29:01;3.20;;;2.90;;
6947;SDS011;3513;47.664;9.162;2023-04-16T08:31:27;3.07;;;2.63;;
6947;SDS011;3513;47.664;9.162;2023-04-16T08:33:52;9.30;;;3.23;;
6947;SDS011;3513;47.664;9.162;2023-04-16T08:36:18;2.37;;;2.17;;
6947;SDS011;3513;47.664;9.162;2023-04-16T08:38:44;3.20;;;2.37;;
6947;SDS011;3513;47.664;9.162;2023-04-16T08:41:10;2.40;;;2.20;;
6947;SDS011;3513;47.664;9.162;2023-04-16T08:43:37;3.10;;;2.80;;
6947;SDS011;3513;47.664;9.162;2023-04-16T08:46:06;8.00;;;3.30;;
6947;SDS011;3513;47.664;9.162;2023-04-16T08:48:33;3.83;;;2.57;;
6947;SDS011;3513;47.664;9.162;2023-04-16T08:51:00;3.80;;;3.43;;
6947;SDS011;3513;47.664;9.162;2023-04-16T08:53:29;3.50;;;3.20;;
6947;SDS011;3513;47.664;9.162;2023-04-16T08:56:02;5.37;;;2.57;;
6947;SDS011;3513;47.664;9.162;2023-04-16T08:58:29;2.60;;;2.33;;
6947;SDS011;3513;47.664;9.162;2023-04-16T09:00:58;4.37;;;3.20;;
6947;SDS011;3513;47.664;9.162;2023-04-16T09:03:24;3.63;;;2.90;;
6947;SDS011;3513;47.664;9.162;2023-04-16T09:05:52;2.50;;;2.30;;
6947;SDS011;3513;47.664;9.162;2023-04-16T09:08:19;4.73;;;3.37;;
6947;SDS011;3513;47.664;9.162;2023-04-16T09:10:45;4.10;;;3.00;;
6947;SDS011;3513;47.664;9.162;2023-04-16T09:13:12;3.10;;;2.80;;
6947;SDS011;3513;47.664;9.162;2023-04-16T09:15:40;3.00;;;2.80;;
6947;SDS011;3513;47.664;9.162;2023-04-16T09:18:06;4.33;;;3.30;;
6947;SDS011;3513;47.664;9.162;2023-04-16T09:20:33;4.73;;;3.33;;
6947;SDS011;3513;47.664;9.162;2023-04-16T09:22:58;4.73;;;3.37;;
6947;SDS011;3513;47.664;9.162;2023-04-16T09:25:24;4.20;;;3.80;;
6947;SDS011;3513;47.664;9.162;2023-04-16T09:27:50;4.80;;;4.30;;
6947;SDS011;3513;47.664;9.162;2023-04-16T09:32:46;5.27;;;3.50;;
6947;SDS011;3513;47.664;9.162;2023-04-16T09:35:12;7.70;;;3.87;;
6947;SDS011;3513;47.664;9.162;2023-04-16T09:37:42;4.93;;;3.93;;
6947;SDS011;3513;47.664;9.162;2023-04-16T09:40:25;4.00;;;3.60;;
6947;SDS011;3513;47.664;9.162;2023-04-16T09:42:51;5.83;;;3.90;;
6947;SDS011;3513;47.664;9.162;2023-04-16T09:45:21;2.73;;;2.40;;
6947;SDS011;3513;47.664;9.162;2023-04-16T09:47:47;3.40;;;3.10;;
6947;SDS011;3513;47.664;9.162;2023-04-16T09:50:16;5.70;;;3.40;;
6947;SDS011;3513;47.664;9.162;2023-04-16T09:52:44;4.07;;;3.07;;
6947;SDS011;3513;47.664;9.162;2023-04-16T09:55:14;5.47;;;3.20;;
6947;SDS011;3513;47.664;9.162;2023-04-16T09:57:39;5.13;;;3.50;;
6947;SDS011;3513;47.664;9.162;2023-04-16T10:00:05;3.50;;;3.00;;
6947;SDS011;3513;47.664;9.162;2023-04-16T10:02:33;3.10;;;2.27;;
6947;SDS011;3513;47.664;9.162;2023-04-16T10:05:00;3.10;;;2.80;;
6947;SDS011;3513;47.664;9.162;2023-04-16T10:07:33;3.20;;;2.57;;
6947;SDS011;3513;47.664;9.162;2023-04-16T10:09:59;4.43;;;3.03;;
6947;SDS011;3513;47.664;9.162;2023-04-16T10:12:25;3.17;;;2.83;;
6947;SDS011;3513;47.664;9.162;2023-04-16T10:14:52;2.50;;;2.30;;
6947;SDS011;3513;47.664;9.162;2023-04-16T10:17:18;15.07;;;2.53;;
6947;SDS011;3513;47.664;9.162;2023-04-16T10:19:45;4.20;;;2.83;;
6947;SDS011;3513;47.664;9.162;2023-04-16T10:22:10;24.50;;;14.27;;
6947;SDS011;3513;47.664;9.162;2023-04-16T10:24:36;4.17;;;3.33;;
6947;SDS011;3513;47.664;9.162;2023-04-16T10:27:02;6.87;;;3.40;;
6947;SDS011;3513;47.664;9.162;2023-04-16T10:29:28;4.80;;;4.27;;
6947;SDS011;3513;47.664;9.162;2023-04-16T10:31:55;3.27;;;2.97;;
6947;SDS011;3513;47.664;9.162;2023-04-16T10:34:21;3.03;;;2.73;;
6947;SDS011;3513;47.664;9.162;2023-04-16T10:36:49;3.80;;;2.80;;
6947;SDS011;3513;47.664;9.162;2023-04-16T10:39:20;5.93;;;4.07;;
6947;SDS011;3513;47.664;9.162;2023-04-16T10:41:47;2.70;;;2.50;;
6947;SDS011;3513;47.664;9.162;2023-04-16T10:44:17;3.13;;;2.50;;
6947;SDS011;3513;47.664;9.162;2023-04-16T10:46:46;8.10;;;2.00;;
6947;SDS011;3513;47.664;9.162;2023-04-16T10:51:40;11.00;;;2.80;;
6947;SDS011;3513;47.664;9.162;2023-04-16T10:56:38;6.73;;;3.13;;
6947;SDS011;3513;47.664;9.162;2023-04-16T10:59:05;4.90;;;3.23;;
6947;SDS011;3513;47.664;9.162;2023-04-16T11:01:35;3.90;;;3.20;;
6947;SDS011;3513;47.664;9.162;2023-04-16T11:07:05;4.27;;;2.23;;
6947;SDS011;3513;47.664;9.162;2023-04-16T11:10:25;3.73;;;2.70;;
6947;SDS011;3513;47.664;9.162;2023-04-16T11:15:07;3.00;;;2.70;;
6947;SDS011;3513;47.664;9.162;2023-04-16T11:20:14;3.37;;;2.80;;
6947;SDS011;3513;47.664;9.162;2023-04-16T11:22:41;3.57;;;3.13;;
6947;SDS011;3513;47.664;9.162;2023-04-16T11:25:07;4.50;;;3.13;;
6947;SDS011;3513;47.664;9.162;2023-04-16T11:27:32;2.60;;;2.40;;
6947;SDS011;3513;47.664;9.162;2023-04-16T11:29:59;2.87;;;2.63;;
6947;SDS011;3513;47.664;9.162;2023-04-16T11:32:30;2.87;;;2.63;;
6947;SDS011;3513;47.664;9.162;2023-04-16T11:35:00;4.00;;;2.87;;
6947;SDS011;3513;47.664;9.162;2023-04-16T11:37:35;3.60;;;2.97;;
6947;SDS011;3513;47.664;9.162;2023-04-16T11:40:01;3.43;;;3.00;;
6947;SDS011;3513;47.664;9.162;2023-04-16T11:42:31;3.70;;;2.90;;
6947;SDS011;3513;47.664;9.162;2023-04-16T11:44:58;4.10;;;2.33;;
6947;SDS011;3513;47.664;9.162;2023-04-16T11:47:24;4.10;;;2.97;;
6947;SDS011;3513;47.664;9.162;2023-04-16T11:49:51;5.20;;;2.80;;
6947;SDS011;3513;47.664;9.162;2023-04-16T11:52:26;2.93;;;2.73;;
6947;SDS011;3513;47.664;9.162;2023-04-16T11:54:53;3.60;;;3.30;;
6947;SDS011;3513;47.664;9.162;2023-04-16T11:57:26;4.40;;;3.50;;
6947;SDS011;3513;47.664;9.162;2023-04-16T11:59:53;6.07;;;3.70;;
6947;SDS011;3513;47.664;9.162;2023-04-16T12:05:04;4.60;;;3.67;;
6947;SDS011;3513;47.664;9.162;2023-04-16T12:07:31;5.10;;;3.20;;
6947;SDS011;3513;47.664;9.162;2023-04-16T12:10:07;3.23;;;2.93;;
6947;SDS011;3513;47.664;9.162;2023-04-16T12:12:33;4.07;;;3.60;;
6947;SDS011;3513;47.664;9.162;2023-04-16T12:15:00;7.67;;;4.63;;
6947;SDS011;3513;47.664;9.162;2023-04-16T12:17:32;10.73;;;3.70;;
6947;SDS011;3513;47.664;9.162;2023-04-16T12:19:59;3.17;;;2.87;;
6947;SDS011;3513;47.664;9.162;2023-04-16T12:22:34;12.23;;;3.90;;
6947;SDS011;3513;47.664;9.162;2023-04-16T12:25:02;9.80;;;3.60;;
6947;SDS011;3513;47.664;9.162;2023-04-16T12:28:01;3.93;;;2.93;;
6947;SDS011;3513;47.664;9.162;2023-04-16T12:30:22;4.90;;;3.97;;
6947;SDS011;3513;47.664;9.162;2023-04-16T12:32:50;9.87;;;4.77;;
6947;SDS011;3513;47.664;9.162;2023-04-16T12:35:30;3.50;;;2.97;;
6947;SDS011;3513;47.664;9.162;2023-04-16T12:37:58;4.43;;;3.40;;
6947;SDS011;3513;47.664;9.162;2023-04-16T12:40:24;6.00;;;4.13;;
6947;SDS011;3513;47.664;9.162;2023-04-16T12:42:49;5.00;;;4.50;;
6947;SDS011;3513;47.664;9.162;2023-04-16T12:45:15;4.47;;;3.57;;
6947;SDS011;3513;47.664;9.162;2023-04-16T12:47:41;5.70;;;5.20;;
6947;SDS011;3513;47.664;9.162;2023-04-16T12:50:06;9.10;;;8.10;;
6947;SDS011;3513;47.664;9.162;2023-04-16T12:52:32;8.97;;;6.97;;
6947;SDS011;3513;47.664;9.162;2023-04-16T12:55:00;6.87;;;5.60;;
6947;SDS011;3513;47.664;9.162;2023-04-16T12:57:26;8.30;;;6.40;;
6947;SDS011;3513;47.664;9.162;2023-04-16T12:59:55;7.70;;;5.10;;
6947;SDS011;3513;47.664;9.162;2023-04-16T13:02:21;8.20;;;5.60;;
6947;SDS011;3513;47.664;9.162;2023-04-16T13:04:48;6.17;;;4.73;;
6947;SDS011;3513;47.664;9.162;2023-04-16T13:07:14;7.73;;;6.27;;
6947;SDS011;3513;47.664;9.162;2023-04-16T13:09:41;9.50;;;6.77;;
6947;SDS011;3513;47.664;9.162;2023-04-16T13:12:07;14.50;;;9.63;;
6947;SDS011;3513;47.664;9.162;2023-04-16T13:14:32;9.77;;;7.30;;
6947;SDS011;3513;47.664;9.162;2023-04-16T13:16:58;11.60;;;7.30;;
6947;SDS011;3513;47.664;9.162;2023-04-16T13:19:24;8.70;;;6.80;;
6947;SDS011;3513;47.664;9.162;2023-04-16T13:21:49;9.10;;;5.53;;
6947;SDS011;3513;47.664;9.162;2023-04-16T13:24:15;8.30;;;6.27;;
6947;SDS011;3513;47.664;9.162;2023-04-16T13:26:41;7.30;;;5.50;;
6947;SDS011;3513;47.664;9.162;2023-04-16T13:29:07;7.80;;;5.73;;
6947;SDS011;3513;47.664;9.162;2023-04-16T13:31:33;11.33;;;5.10;;
6947;SDS011;3513;47.664;9.162;2023-04-16T13:33:59;5.87;;;4.80;;
6947;SDS011;3513;47.664;9.162;2023-04-16T13:36:25;7.30;;;5.40;;
6947;SDS011;3513;47.664;9.162;2023-04-16T13:38:51;7.30;;;5.90;;
6947;SDS011;3513;47.664;9.162;2023-04-16T13:41:17;7.90;;;6.80;;
6947;SDS011;3513;47.664;9.162;2023-04-16T13:43:42;8.30;;;6.50;;
6947;SDS011;3513;47.664;9.162;2023-04-16T13:46:08;8.93;;;6.23;;
6947;SDS011;3513;47.664;9.162;2023-04-16T13:48:33;10.83;;;6.17;;
6947;SDS011;3513;47.664;9.162;2023-04-16T13:50:59;8.50;;;6.20;;
6947;SDS011;3513;47.664;9.162;2023-04-16T13:53:25;12.30;;;8.50;;
6947;SDS011;3513;47.664;9.162;2023-04-16T13:55:50;13.70;;;9.30;;
6947;SDS011;3513;47.664;9.162;2023-04-16T13:58:16;12.73;;;9.40;;
6947;SDS011;3513;47.664;9.162;2023-04-16T14:00:42;16.63;;;10.60;;
6947;SDS011;3513;47.664;9.162;2023-04-16T14:03:07;22.70;;;10.57;;
6947;SDS011;3513;47.664;9.162;2023-04-16T14:05:33;14.80;;;10.40;;
6947;SDS011;3513;47.664;9.162;2023-04-16T14:07:58;22.23;;;10.40;;
6947;SDS011;3513;47.664;9.162;2023-04-16T14:10:24;13.60;;;10.90;;
6947;SDS011;3513;47.664;9.162;2023-04-16T14:12:50;14.70;;;10.37;;
6947;SDS011;3513;47.664;9.162;2023-04-16T14:15:15;18.43;;;12.47;;
6947;SDS011;3513;47.664;9.162;2023-04-16T14:17:42;21.97;;;13.23;;
6947;SDS011;3513;47.664;9.162;2023-04-16T14:20:11;19.97;;;13.10;;
6947;SDS011;3513;47.664;9.162;2023-04-16T14:22:38;23.63;;;14.00;;
6947;SDS011;3513;47.664;9.162;2023-04-16T14:25:04;22.10;;;14.97;;
6947;SDS011;3513;47.664;9.162;2023-04-16T14:27:30;28.13;;;17.03;;
6947;SDS011;3513;47.664;9.162;2023-04-16T14:29:56;28.33;;;16.13;;
6947;SDS011;3513;47.664;9.162;2023-04-16T14:32:22;28.67;;;15.20;;
6947;SDS011;3513;47.664;9.162;2023-04-16T14:34:47;22.03;;;15.57;;
6947;SDS011;3513;47.664;9.162;2023-04-16T14:37:15;21.63;;;15.27;;
6947;SDS011;3513;47.664;9.162;2023-04-16T14:39:41;21.83;;;14.63;;
6947;SDS011;3513;47.664;9.162;2023-04-16T14:42:07;21.63;;;16.13;;
6947;SDS011;3513;47.664;9.162;2023-04-16T14:44:33;20.07;;;15.27;;
6947;SDS011;3513;47.664;9.162;2023-04-16T14:46:58;23.60;;;16.00;;
6947;SDS011;3513;47.664;9.162;2023-04-16T14:49:24;22.13;;;14.87;;
6947;SDS011;3513;47.664;9.162;2023-04-16T14:51:50;21.90;;;15.13;;
6947;SDS011;3513;47.664;9.162;2023-04-16T14:54:16;19.23;;;13.80;;
6947;SDS011;3513;47.664;9.162;2023-04-16T14:56:43;23.00;;;14.20;;
6947;SDS011;3513;47.664;9.162;2023-04-16T14:59:09;23.40;;;14.43;;
6947;SDS011;3513;47.664;9.162;2023-04-16T15:01:35;24.07;;;14.93;;
6947;SDS011;3513;47.664;9.162;2023-04-16T15:04:03;26.60;;;16.30;;
6947;SDS011;3513;47.664;9.162;2023-04-16T15:06:29;25.60;;;16.30;;
6947;SDS011;3513;47.664;9.162;2023-04-16T15:08:56;24.70;;;16.70;;
6947;SDS011;3513;47.664;9.162;2023-04-16T15:11:21;24.87;;;16.93;;
6947;SDS011;3513;47.664;9.162;2023-04-16T15:13:47;29.97;;;16.13;;
6947;SDS011;3513;47.664;9.162;2023-04-16T15:16:12;21.43;;;14.60;;
6947;SDS011;3513;47.664;9.162;2023-04-16T15:18:38;30.93;;;16.40;;
6947;SDS011;3513;47.664;9.162;2023-04-16T15:21:03;20.67;;;14.40;;
6947;SDS011;3513;47.664;9.162;2023-04-16T15:23:29;27.80;;;16.10;;